Time;durP1;ratioP1;P1;durP2;ratioP2;P2;SDS_P1;SDS_P2;PMS_P1;PMS_P2;Temp;Humidity;BMP_temperature;BMP_pressure;BME280_temperature;BME280_humidity;BME280_pressure;Samples;Min_cycle;Max_cycle;Signal;HPM_P1;HPM_P2
2021/08/29 00:01:22;;;;;;;10.35;6.80;;;;;;;15.09;96.42;96345.34;4977819;28;20196;-70
2021/08/29 00:03:49;;;;;;;9.68;7.20;;;;;;;15.22;96.17;96348.84;4977236;28;20233;-71
2021/08/29 00:06:16;;;;;;;9.70;6.88;;;;;;;15.22;96.18;96348.03;4977137;28;20234;-70
2021/08/29 00:08:43;;;;;;;10.68;7.68;;;;;;;15.37;95.77;96338.84;4978346;28;20230;-71
2021/08/29 00:11:10;;;;;;;10.85;7.00;;;;;;;15.24;95.66;96338.03;4977352;28;20214;-71
2021/08/29 00:13:37;;;;;;;9.90;7.40;;;;;;;15.22;95.41;96332.91;4977615;28;20219;-70
2021/08/29 00:16:03;;;;;;;9.98;6.90;;;;;;;15.25;95.56;96329.88;4976416;28;20253;-69
2021/08/29 00:18:30;;;;;;;11.82;6.93;;;;;;;15.19;95.87;96330.66;4977297;28;20230;-71
2021/08/29 00:20:56;;;;;;;11.05;7.72;;;;;;;15.07;96.62;96326.97;4977790;28;20622;-70
2021/08/29 00:23:23;;;;;;;10.85;7.95;;;;;;;15.09;96.62;96330.22;4977473;28;20207;-70
2021/08/29 00:25:51;;;;;;;14.65;7.35;;;;;;;15.28;96.60;96327.59;4976514;28;20707;-70
2021/08/29 00:28:17;;;;;;;11.43;8.15;;;;;;;15.16;96.45;96333.72;4975143;28;20203;-70
2021/08/29 00:30:44;;;;;;;11.63;7.72;;;;;;;15.13;96.57;96334.09;4977715;28;20210;-71
2021/08/29 00:33:10;;;;;;;13.48;7.93;;;;;;;15.19;96.07;96332.50;4977180;28;20675;-70
2021/08/29 00:35:37;;;;;;;13.65;8.00;;;;;;;15.14;96.55;96335.75;4976462;28;20227;-70
2021/08/29 00:38:03;;;;;;;13.70;8.13;;;;;;;15.15;96.33;96334.72;4977975;28;20840;-71
2021/08/29 00:40:30;;;;;;;12.23;8.68;;;;;;;15.17;96.33;96331.88;4977537;28;20203;-70
2021/08/29 00:42:58;;;;;;;14.30;8.60;;;;;;;15.31;96.14;96324.56;4977536;28;20211;-71
2021/08/29 00:45:26;;;;;;;14.43;8.73;;;;;;;15.17;96.31;96324.72;4976304;28;20230;-71
2021/08/29 00:47:52;;;;;;;16.17;10.45;;;;;;;15.11;96.33;96322.03;4977422;28;20211;-70
2021/08/29 00:50:19;;;;;;;17.48;10.07;;;;;;;15.18;96.04;96321.03;4977102;28;20212;-71
2021/08/29 00:52:45;;;;;;;23.48;11.25;;;;;;;15.20;96.27;96313.69;4977350;28;20207;-70
2021/08/29 00:55:13;;;;;;;21.30;11.43;;;;;;;15.27;96.65;96311.88;4976091;28;20239;-71
2021/08/29 00:57:41;;;;;;;16.80;9.95;;;;;;;15.17;96.61;96307.97;4976923;28;20211;-69
2021/08/29 01:00:11;;;;;;;16.73;9.43;;;;;;;15.29;96.20;96304.53;4976855;28;20237;-70
2021/08/29 01:02:40;;;;;;;16.67;9.43;;;;;;;15.26;96.42;96310.25;4977178;28;20223;-70
2021/08/29 01:05:10;;;;;;;15.52;10.02;;;;;;;15.23;96.99;96315.97;4976670;28;20235;-71
2021/08/29 01:07:39;;;;;;;14.38;9.18;;;;;;;15.21;97.03;96303.91;4976737;28;20210;-70
2021/08/29 01:10:10;;;;;;;16.38;9.63;;;;;;;15.32;96.63;96301.47;4978242;28;20203;-70
2021/08/29 01:12:38;;;;;;;16.05;10.07;;;;;;;15.15;96.67;96300.22;4977279;28;20226;-70
2021/08/29 01:15:07;;;;;;;17.55;9.43;;;;;;;15.22;96.74;96305.56;4976866;28;20301;-70
2021/08/29 01:17:37;;;;;;;16.52;9.88;;;;;;;15.30;96.72;96299.03;4976434;28;20211;-71
2021/08/29 01:20:14;;;;;;;14.60;9.10;;;;;;;15.29;96.27;96297.38;4976559;28;20227;-71
2021/08/29 01:22:42;;;;;;;14.30;8.82;;;;;;;14.99;97.10;96300.59;4976626;28;20229;-71
2021/08/29 01:25:12;;;;;;;15.00;9.27;;;;;;;15.20;96.65;96303.09;4976330;28;20239;-71
2021/08/29 01:27:46;;;;;;;13.68;9.45;;;;;;;15.32;96.01;96304.13;4974233;28;20222;-70
2021/08/29 01:30:14;;;;;;;13.77;9.55;;;;;;;15.24;96.40;96299.03;4975969;28;20198;-70
2021/08/29 01:32:42;;;;;;;18.60;10.05;;;;;;;15.17;96.57;96298.16;4976622;28;20568;-70
2021/08/29 01:35:10;;;;;;;14.52;9.98;;;;;;;15.28;96.13;96297.59;4976131;28;20235;-71
2021/08/29 01:37:39;;;;;;;14.90;10.13;;;;;;;15.09;97.56;96298.38;4975745;28;20219;-69
2021/08/29 01:40:07;;;;;;;17.95;10.70;;;;;;;15.04;96.72;96294.69;4976316;28;20238;-70
2021/08/29 01:42:35;;;;;;;15.55;9.95;;;;;;;15.03;97.13;96291.22;4976411;28;20203;-70
2021/08/29 01:45:01;;;;;;;17.73;10.80;;;;;;;14.89;96.86;96294.88;4975965;28;20224;-70
2021/08/29 01:47:29;;;;;;;16.88;10.65;;;;;;;14.76;98.63;96294.84;4975492;28;20218;-70
2021/08/29 01:49:56;;;;;;;17.80;10.48;;;;;;;14.56;99.18;96297.66;4976970;28;20200;-70
2021/08/29 01:52:22;;;;;;;20.80;10.52;;;;;;;14.66;98.33;96298.91;4975783;28;20210;-70
2021/08/29 01:54:49;;;;;;;16.88;10.70;;;;;;;14.80;97.95;96304.06;4976445;28;21231;-70
2021/08/29 01:57:15;;;;;;;25.20;10.98;;;;;;;14.60;98.92;96299.72;4975378;28;20203;-71
2021/08/29 01:59:43;;;;;;;19.40;11.10;;;;;;;14.95;98.12;96296.72;4976342;28;20234;-70
2021/08/29 02:02:11;;;;;;;17.35;10.65;;;;;;;15.05;97.30;96302.44;4975896;28;20211;-70
2021/08/29 02:04:40;;;;;;;18.45;11.05;;;;;;;15.04;97.32;96302.66;4976452;28;20207;-70
2021/08/29 02:07:14;;;;;;;21.40;11.55;;;;;;;14.99;97.21;96289.19;4975178;28;20207;-70
2021/08/29 02:09:46;;;;;;;22.00;11.07;;;;;;;15.06;97.53;96296.13;4975937;28;21023;-70
2021/08/29 02:12:13;;;;;;;18.45;11.48;;;;;;;14.92;97.66;96298.97;4976244;28;20222;-71
2021/08/29 02:14:45;;;;;;;18.92;10.98;;;;;;;15.08;97.67;96301.22;4975977;28;20211;-69
2021/08/29 02:17:12;;;;;;;16.23;10.02;;;;;;;14.96;97.63;96290.41;4974697;28;20211;-70
2021/08/29 02:19:42;;;;;;;18.13;10.70;;;;;;;15.01;98.04;96292.47;4973013;28;20255;-70
2021/08/29 02:22:10;;;;;;;18.08;11.20;;;;;;;14.66;98.87;96286.47;4976336;28;20222;-70
2021/08/29 02:24:37;;;;;;;17.23;11.07;;;;;;;14.92;98.62;96294.47;4975675;28;20219;-70
2021/08/29 02:27:04;;;;;;;18.50;11.25;;;;;;;15.00;98.08;96288.16;4973195;28;20203;-70
2021/08/29 02:29:31;;;;;;;17.17;11.27;;;;;;;14.96;98.00;96293.06;4975745;28;20719;-70
2021/08/29 02:31:58;;;;;;;19.05;12.02;;;;;;;15.00;97.32;96286.31;4975760;28;20576;-71
2021/08/29 02:34:24;;;;;;;18.98;11.50;;;;;;;15.03;97.33;96288.59;4975519;28;20207;-71
2021/08/29 02:36:53;;;;;;;16.80;10.77;;;;;;;15.16;97.29;96280.63;4974876;28;20223;-71
2021/08/29 02:39:21;;;;;;;18.45;11.55;;;;;;;14.80;98.34;96280.19;4974819;28;21083;-70
2021/08/29 02:41:51;;;;;;;18.17;11.68;;;;;;;15.05;97.83;96277.75;4975302;28;20208;-70
2021/08/29 02:44:19;;;;;;;19.08;11.40;;;;;;;14.96;98.21;96276.31;4975640;28;20195;-70
2021/08/29 02:46:46;;;;;;;17.67;11.18;;;;;;;14.99;97.31;96268.75;4974705;28;20738;-71
2021/08/29 02:49:13;;;;;;;17.80;11.23;;;;;;;14.90;98.00;96269.16;4975673;28;20203;-70
2021/08/29 02:51:40;;;;;;;18.90;11.68;;;;;;;14.77;98.50;96269.94;4975771;28;20233;-71
2021/08/29 02:54:08;;;;;;;22.42;12.18;;;;;;;14.93;97.71;96269.59;4974988;28;20230;-70
2021/08/29 02:56:37;;;;;;;17.90;11.70;;;;;;;14.81;98.08;96270.38;4974232;28;20236;-71
2021/08/29 02:59:04;;;;;;;18.35;11.85;;;;;;;14.82;98.96;96270.16;4975099;28;20231;-71
2021/08/29 03:01:30;;;;;;;18.25;11.52;;;;;;;15.06;97.77;96272.25;4975610;28;20838;-70
2021/08/29 03:03:57;;;;;;;18.75;12.20;;;;;;;15.06;97.58;96280.22;4975343;28;20211;-71
2021/08/29 03:06:24;;;;;;;16.38;10.85;;;;;;;14.89;97.86;96278.97;4974857;28;21467;-70
2021/08/29 03:08:51;;;;;;;17.17;11.48;;;;;;;15.09;97.56;96277.13;4975089;28;20208;-69
2021/08/29 03:11:20;;;;;;;19.63;12.32;;;;;;;15.19;98.12;96282.06;4975239;28;20214;-70
2021/08/29 03:13:47;;;;;;;20.52;12.00;;;;;;;15.13;98.18;96275.69;4974881;28;20203;-71
2021/08/29 03:16:13;;;;;;;21.75;12.10;;;;;;;14.97;97.81;96276.13;4974537;28;20222;-69
2021/08/29 03:18:40;;;;;;;19.40;11.73;;;;;;;15.00;97.79;96273.03;4974481;28;20219;-70
2021/08/29 03:21:07;;;;;;;17.63;11.05;;;;;;;14.77;98.59;96262.00;4975646;28;20402;-71
2021/08/29 03:23:34;;;;;;;20.27;12.07;;;;;;;14.81;98.10;96270.38;4974462;28;20199;-70
2021/08/29 03:26:01;;;;;;;17.73;11.48;;;;;;;14.60;99.62;96272.38;4974406;28;20227;-69
2021/08/29 03:28:30;;;;;;;18.48;11.77;;;;;;;14.77;99.41;96264.66;4972977;28;20914;-71
2021/08/29 03:30:56;;;;;;;19.33;11.57;;;;;;;14.83;98.61;96269.16;4974243;28;20204;-70
2021/08/29 03:33:25;;;;;;;24.33;12.67;;;;;;;14.84;98.98;96260.19;4974504;28;20207;-70
2021/08/29 03:35:52;;;;;;;21.27;12.63;;;;;;;15.02;98.72;96263.06;4974696;28;20234;-69
2021/08/29 03:38:21;;;;;;;21.13;12.70;;;;;;;15.03;98.14;96262.03;4974884;28;20210;-71
2021/08/29 03:40:49;;;;;;;21.33;13.13;;;;;;;14.74;99.89;96262.41;4974001;28;21020;-71
2021/08/29 03:43:16;;;;;;;21.48;13.73;;;;;;;14.65;99.43;96263.63;4974493;28;20207;-71
2021/08/29 03:45:44;;;;;;;22.65;13.77;;;;;;;14.97;99.50;96265.50;4974088;28;20227;-71
2021/08/29 03:48:11;;;;;;;22.85;14.25;;;;;;;14.86;99.61;96266.09;4974470;28;20215;-70
2021/08/29 03:50:39;;;;;;;25.53;14.17;;;;;;;14.99;98.80;96258.13;4974814;28;20213;-71
2021/08/29 03:53:06;;;;;;;26.60;14.38;;;;;;;14.78;100.00;96263.63;4977491;28;20621;-71
2021/08/29 03:55:32;;;;;;;25.83;14.75;;;;;;;14.67;99.65;96258.91;4976537;28;20231;-71
2021/08/29 03:57:59;;;;;;;27.13;13.45;;;;;;;14.74;99.62;96254.44;4978415;28;20208;-70
2021/08/29 04:00:26;;;;;;;25.50;14.43;;;;;;;14.67;100.00;96258.91;4977451;28;20722;-71
2021/08/29 04:02:55;;;;;;;25.30;15.05;;;;;;;14.66;100.00;96256.47;4977769;28;20294;-71
2021/08/29 04:05:22;;;;;;;27.23;15.40;;;;;;;14.52;100.00;96254.00;4976532;28;20242;-70
2021/08/29 04:07:50;;;;;;;28.75;15.93;;;;;;;14.78;100.00;96255.69;4977880;28;20208;-71
2021/08/29 04:10:20;;;;;;;26.27;14.85;;;;;;;14.64;100.00;96248.72;4977787;28;20206;-71
2021/08/29 04:12:48;;;;;;;26.17;15.20;;;;;;;14.82;100.00;96254.25;4977706;28;20208;-70
2021/08/29 04:15:15;;;;;;;27.27;16.33;;;;;;;14.87;99.65;96253.66;4976736;28;20227;-71
2021/08/29 04:17:43;;;;;;;28.55;16.10;;;;;;;14.66;100.00;96254.66;4977981;28;20207;-70
2021/08/29 04:20:13;;;;;;;29.70;15.18;;;;;;;14.76;100.00;96246.28;4977105;28;20230;-71
2021/08/29 04:22:40;;;;;;;27.02;15.23;;;;;;;14.56;100.00;96255.22;4977522;28;20222;-71
2021/08/29 04:25:07;;;;;;;31.05;16.65;;;;;;;14.65;100.00;96245.06;4977528;28;20738;-71
2021/08/29 04:27:34;;;;;;;33.35;16.63;;;;;;;14.45;100.00;96251.31;4974528;28;21061;-70
2021/08/29 04:30:01;;;;;;;32.65;16.80;;;;;;;14.47;100.00;96246.63;4977239;28;20218;-71
2021/08/29 04:32:31;;;;;;;27.75;16.52;;;;;;;14.67;100.00;96244.84;4977055;28;20754;-71
2021/08/29 04:34:58;;;;;;;31.27;16.42;;;;;;;14.45;100.00;96247.88;4977325;28;20207;-71
2021/08/29 04:37:25;;;;;;;34.63;16.42;;;;;;;14.47;100.00;96240.53;4976566;28;20207;-71
2021/08/29 04:39:52;;;;;;;30.33;16.27;;;;;;;14.35;100.00;96247.44;4977996;28;20227;-70
2021/08/29 04:42:18;;;;;;;35.03;16.97;;;;;;;14.39;100.00;96243.34;4977117;28;20222;-70
2021/08/29 04:44:45;;;;;;;33.60;17.43;;;;;;;14.53;100.00;96245.84;4976977;28;20207;-70
2021/08/29 04:47:11;;;;;;;32.85;17.30;;;;;;;14.55;100.00;96248.28;4976639;28;20212;-70
2021/08/29 04:49:38;;;;;;;33.22;17.27;;;;;;;14.40;100.00;96245.00;4977579;28;20211;-71
2021/08/29 04:52:05;;;;;;;32.05;17.50;;;;;;;14.54;100.00;96242.16;4976715;28;20207;-70
2021/08/29 04:54:33;;;;;;;34.65;17.33;;;;;;;14.89;100.00;96241.81;4976869;28;20222;-71
2021/08/29 04:56:59;;;;;;;32.05;16.92;;;;;;;14.71;100.00;96238.94;4976256;28;20227;-71
2021/08/29 04:59:26;;;;;;;34.25;18.50;;;;;;;14.83;100.00;96247.13;4976581;28;20228;-70
2021/08/29 05:01:53;;;;;;;33.85;17.98;;;;;;;14.81;100.00;96238.53;4976527;28;20214;-70
2021/08/29 05:04:20;;;;;;;32.50;16.80;;;;;;;14.76;100.00;96243.63;4976401;28;20609;-70
2021/08/29 05:06:46;;;;;;;32.72;16.95;;;;;;;14.76;100.00;96246.28;4975718;28;20223;-70
2021/08/29 05:09:13;;;;;;;32.78;17.48;;;;;;;14.82;99.99;96246.28;4976919;28;20207;-71
2021/08/29 05:11:41;;;;;;;30.98;17.52;;;;;;;14.86;99.95;96247.50;4976803;28;20203;-70
2021/08/29 05:14:07;;;;;;;29.02;16.42;;;;;;;14.51;100.00;96239.09;4976820;28;20792;-70
2021/08/29 05:16:33;;;;;;;27.20;16.20;;;;;;;14.64;100.00;96248.72;4975348;28;20223;-71
2021/08/29 05:19:00;;;;;;;32.13;16.45;;;;;;;14.57;100.00;96243.59;4976715;28;20212;-71
2021/08/29 05:21:26;;;;;;;28.70;15.48;;;;;;;14.57;100.00;96246.25;4976482;28;20242;-72
2021/08/29 05:23:53;;;;;;;29.93;15.60;;;;;;;14.51;100.00;96245.22;4976588;28;20203;-71
2021/08/29 05:26:20;;;;;;;27.42;15.10;;;;;;;14.68;100.00;96244.63;4975265;28;20226;-70
2021/08/29 05:28:47;;;;;;;28.00;15.85;;;;;;;14.83;100.00;96247.94;4973865;28;20722;-69
2021/08/29 05:31:14;;;;;;;26.42;16.00;;;;;;;14.60;100.00;96245.84;4976603;28;20203;-69
2021/08/29 05:33:40;;;;;;;24.40;13.82;;;;;;;14.53;100.00;96239.72;4976144;28;20215;-71
2021/08/29 05:36:07;;;;;;;27.33;16.15;;;;;;;14.47;100.00;96240.53;4976021;28;20223;-69
2021/08/29 05:38:33;;;;;;;25.13;14.00;;;;;;;14.28;100.00;96244.75;4976042;28;20203;-71
2021/08/29 05:41:00;;;;;;;27.67;15.20;;;;;;;14.48;100.00;96239.50;4976125;28;20233;-70
2021/08/29 05:43:26;;;;;;;27.83;16.92;;;;;;;14.42;100.00;96240.28;4977530;28;20219;-71
2021/08/29 05:45:54;;;;;;;25.90;14.57;;;;;;;14.50;100.00;96237.44;4975232;28;20249;-70
2021/08/29 05:48:20;;;;;;;27.40;16.02;;;;;;;14.57;100.00;96236.44;4975548;28;20204;-70
2021/08/29 05:50:47;;;;;;;28.05;16.25;;;;;;;14.65;100.00;96237.09;4976259;28;20210;-70
2021/08/29 05:53:13;;;;;;;28.83;16.60;;;;;;;14.55;100.00;96237.66;4976527;28;20213;-71
2021/08/29 05:55:40;;;;;;;27.20;16.00;;;;;;;14.77;100.00;96238.13;4974606;28;20243;-69
2021/08/29 05:58:06;;;;;;;29.90;16.17;;;;;;;14.89;100.00;96241.00;4976467;28;20723;-70
2021/08/29 06:00:33;;;;;;;28.60;16.45;;;;;;;14.79;100.00;96241.41;4975648;28;20229;-70
2021/08/29 06:03:01;;;;;;;27.42;15.75;;;;;;;15.18;100.00;96241.41;4976344;28;20218;-70
2021/08/29 06:05:27;;;;;;;25.45;15.30;;;;;;;14.76;100.00;96239.13;4975216;28;20234;-70
2021/08/29 06:07:54;;;;;;;25.88;15.23;;;;;;;14.87;99.61;96240.41;4975872;28;20248;-71
2021/08/29 06:10:20;;;;;;;27.00;15.20;;;;;;;14.85;100.00;96243.22;4975331;28;20207;-69
2021/08/29 06:12:47;;;;;;;27.00;15.50;;;;;;;14.86;99.88;96231.59;4975324;28;20207;-70
2021/08/29 06:15:14;;;;;;;26.17;15.02;;;;;;;15.02;99.75;96235.69;4974870;28;21358;-71
2021/08/29 06:17:40;;;;;;;26.65;15.38;;;;;;;15.01;99.39;96236.72;4975390;28;20207;-70
2021/08/29 06:20:09;;;;;;;24.83;15.35;;;;;;;14.93;100.00;96227.13;4975438;28;20227;-70
2021/08/29 06:22:36;;;;;;;26.05;15.32;;;;;;;14.90;100.00;96232.81;4975132;28;20207;-70
2021/08/29 06:25:02;;;;;;;26.98;15.40;;;;;;;14.98;99.91;96230.00;4975570;28;20735;-70
2021/08/29 06:27:29;;;;;;;24.38;14.75;;;;;;;14.97;99.59;96223.03;4971880;28;20203;-70
2021/08/29 06:29:55;;;;;;;28.52;14.45;;;;;;;14.91;99.49;96229.16;4975919;28;20203;-70
2021/08/29 06:32:22;;;;;;;23.70;13.95;;;;;;;14.86;100.00;96220.97;4975258;28;20210;-70
2021/08/29 06:34:48;;;;;;;23.80;14.02;;;;;;;14.76;100.00;96215.25;4975423;28;20211;-70
2021/08/29 06:37:16;;;;;;;21.40;12.30;;;;;;;14.94;99.33;96220.81;4974637;28;20203;-70
2021/08/29 06:39:43;;;;;;;21.42;13.68;;;;;;;15.03;98.70;96221.41;4975607;28;20591;-70
2021/08/29 06:42:09;;;;;;;29.52;15.02;;;;;;;15.25;99.23;96221.03;4975599;28;20227;-71
2021/08/29 06:44:36;;;;;;;24.55;14.55;;;;;;;15.25;100.00;96218.38;4974664;28;20203;-70
2021/08/29 06:47:02;;;;;;;28.25;14.63;;;;;;;15.28;99.43;96220.59;4975660;28;20238;-71
2021/08/29 06:49:29;;;;;;;23.40;14.00;;;;;;;15.47;99.29;96219.75;4975462;28;20234;-71
2021/08/29 06:51:55;;;;;;;23.20;14.18;;;;;;;15.20;100.00;96223.44;4974906;28;20214;-71
2021/08/29 06:54:23;;;;;;;24.05;13.23;;;;;;;15.52;99.68;96222.63;4974964;28;20214;-71
2021/08/29 06:56:50;;;;;;;22.00;13.70;;;;;;;15.12;98.74;96215.69;4975143;28;20231;-70
2021/08/29 06:59:16;;;;;;;23.38;14.13;;;;;;;15.19;98.60;96215.69;4974734;28;20203;-70
2021/08/29 07:01:43;;;;;;;20.45;12.85;;;;;;;14.97;99.20;96215.09;4974971;28;21000;-70
2021/08/29 07:04:09;;;;;;;21.50;13.02;;;;;;;15.18;99.52;96209.53;4974734;28;20230;-69
2021/08/29 07:06:36;;;;;;;24.95;13.95;;;;;;;15.31;99.70;96204.25;4973597;28;20231;-69
2021/08/29 07:09:03;;;;;;;24.77;13.20;;;;;;;15.09;99.65;96204.66;4974236;28;20207;-70
2021/08/29 07:11:31;;;;;;;20.55;13.27;;;;;;;15.29;100.00;96206.31;4975121;28;20668;-71
2021/08/29 07:13:57;;;;;;;21.70;12.85;;;;;;;14.89;100.00;96209.97;4974707;28;20211;-70
2021/08/29 07:16:24;;;;;;;22.33;13.32;;;;;;;15.28;99.83;96220.59;4974109;28;20227;-69
2021/08/29 07:18:50;;;;;;;22.65;13.25;;;;;;;15.21;99.40;96218.97;4974588;28;20211;-70
2021/08/29 07:21:17;;;;;;;22.23;13.77;;;;;;;15.51;98.50;96226.28;4974898;28;20227;-69
2021/08/29 07:23:43;;;;;;;25.85;13.55;;;;;;;15.46;100.00;96223.44;4974201;28;20691;-70
2021/08/29 07:26:13;;;;;;;24.17;14.70;;;;;;;15.87;98.60;96220.28;4975532;28;20234;-70
2021/08/29 07:28:41;;;;;;;24.10;13.55;;;;;;;16.10;98.70;96227.72;4975596;28;20689;-70
2021/08/29 07:31:08;;;;;;;22.73;13.38;;;;;;;16.02;97.37;96228.78;4978005;28;20207;-71
2021/08/29 07:33:34;;;;;;;22.00;12.85;;;;;;;16.01;96.74;96229.84;4978035;28;20204;-69
2021/08/29 07:36:01;;;;;;;25.67;13.65;;;;;;;16.13;97.48;96228.13;4976841;28;20227;-70
2021/08/29 07:38:28;;;;;;;21.67;12.15;;;;;;;15.80;94.90;96233.78;4977793;28;20207;-70
2021/08/29 07:40:55;;;;;;;21.15;12.10;;;;;;;15.50;96.75;96230.78;4977755;28;20230;-71
2021/08/29 07:43:21;;;;;;;18.83;11.50;;;;;;;15.80;96.82;96226.63;4977963;28;20206;-70
2021/08/29 07:45:49;;;;;;;24.52;12.68;;;;;;;16.06;95.92;96227.38;4977049;28;20277;-69
2021/08/29 07:48:15;;;;;;;22.10;12.73;;;;;;;16.02;96.24;96223.47;4978361;28;20203;-70
2021/08/29 07:50:42;;;;;;;23.60;14.52;;;;;;;16.18;96.43;96230.19;4978036;28;20682;-70
2021/08/29 07:53:08;;;;;;;21.77;13.05;;;;;;;16.13;95.05;96232.66;4978550;28;20580;-70
2021/08/29 07:55:35;;;;;;;23.08;13.18;;;;;;;16.14;95.49;96235.09;4976753;28;20234;-70
2021/08/29 07:58:01;;;;;;;19.67;12.18;;;;;;;15.86;94.53;96239.91;4977763;28;20639;-71
2021/08/29 08:00:28;;;;;;;17.52;10.68;;;;;;;15.86;95.67;96237.22;4978705;28;20214;-70
2021/08/29 08:02:57;;;;;;;15.00;10.77;;;;;;;15.88;95.55;96237.84;4978181;28;20214;-70
2021/08/29 08:05:25;;;;;;;18.35;12.38;;;;;;;15.85;95.56;96248.88;4976096;28;20238;-71
2021/08/29 08:07:51;;;;;;;19.27;11.98;;;;;;;15.90;97.15;96242.97;4977656;28;20628;-71
2021/08/29 08:10:21;;;;;;;14.95;8.85;;;;;;;15.68;95.69;96243.41;4977251;28;20215;-70
2021/08/29 08:12:47;;;;;;;14.77;9.23;;;;;;;16.21;94.78;96246.50;4977327;28;20239;-69
2021/08/29 08:15:14;;;;;;;15.68;10.18;;;;;;;16.28;94.00;96249.16;4976969;28;20223;-71
2021/08/29 08:17:40;;;;;;;15.32;9.60;;;;;;;16.14;94.07;96255.53;4976930;28;20219;-70
2021/08/29 08:20:10;;;;;;;13.60;8.98;;;;;;;16.68;93.18;96251.41;4977349;28;20211;-70
2021/08/29 08:22:36;;;;;;;10.45;6.22;;;;;;;16.20;90.15;96250.19;4977226;28;20231;-69
2021/08/29 08:25:03;;;;;;;13.82;8.65;;;;;;;16.20;94.06;96249.38;4977116;28;21343;-69
2021/08/29 08:27:30;;;;;;;11.52;7.70;;;;;;;16.16;93.17;96246.31;4973808;28;20528;-69
2021/08/29 08:29:56;;;;;;;11.35;7.85;;;;;;;16.38;91.42;96249.53;4977146;28;20211;-70
2021/08/29 08:32:23;;;;;;;13.00;8.25;;;;;;;16.54;91.88;96247.19;4977231;28;20203;-70
2021/08/29 08:34:49;;;;;;;11.98;7.10;;;;;;;16.93;89.04;96246.94;4976941;28;20210;-70
2021/08/29 08:37:17;;;;;;;11.80;8.52;;;;;;;16.98;89.66;96247.09;4975584;28;20863;-70
2021/08/29 08:39:45;;;;;;;9.73;6.57;;;;;;;16.25;89.96;96246.91;4977070;28;20211;-70
2021/08/29 08:42:11;;;;;;;9.15;6.50;;;;;;;16.22;89.96;96253.47;4974505;28;20246;-69
2021/08/29 08:44:38;;;;;;;8.70;5.70;;;;;;;16.18;90.65;96246.94;4976405;28;20210;-70
2021/08/29 08:47:07;;;;;;;11.90;7.47;;;;;;;16.46;91.17;96246.63;4975195;28;20474;-69
2021/08/29 08:49:35;;;;;;;11.70;7.25;;;;;;;16.26;90.85;96241.41;4976545;28;20402;-70
2021/08/29 08:52:06;;;;;;;9.35;5.75;;;;;;;16.30;90.09;96239.94;4976096;28;20214;-69
2021/08/29 08:54:34;;;;;;;11.18;7.88;;;;;;;16.50;91.08;96240.69;4976310;28;20219;-70
2021/08/29 08:57:01;;;;;;;12.35;7.30;;;;;;;16.11;90.92;96235.50;4975265;28;20590;-69
2021/08/29 08:59:30;;;;;;;10.95;7.68;;;;;;;16.43;90.32;96229.25;4976294;28;20217;-70
2021/08/29 09:01:58;;;;;;;9.20;6.45;;;;;;;16.61;89.71;96232.00;4976406;28;20234;-70
2021/08/29 09:04:25;;;;;;;10.98;7.30;;;;;;;16.97;89.97;96221.50;4976801;28;20207;-71
2021/08/29 09:06:52;;;;;;;12.68;7.90;;;;;;;17.11;88.77;96227.34;4975313;28;20231;-70
2021/08/29 09:09:18;;;;;;;10.10;7.15;;;;;;;17.53;86.82;96225.78;4976173;28;20199;-70
2021/08/29 09:11:46;;;;;;;7.53;5.32;;;;;;;17.93;83.73;96230.47;4976574;28;20222;-70
2021/08/29 09:14:13;;;;;;;8.68;6.57;;;;;;;18.36;85.32;96227.50;4976083;28;20218;-70
2021/08/29 09:16:39;;;;;;;8.00;4.90;;;;;;;18.27;79.74;96222.72;4975384;28;20242;-70
2021/08/29 09:19:07;;;;;;;6.40;4.63;;;;;;;18.58;81.38;96222.50;4975847;28;20675;-70
2021/08/29 09:21:36;;;;;;;6.05;3.53;;;;;;;18.08;79.16;96222.94;4976180;28;20890;-71
2021/08/29 09:24:08;;;;;;;4.50;3.58;;;;;;;18.13;79.90;96221.22;4975483;28;20215;-70
2021/08/29 09:26:41;;;;;;;6.03;3.78;;;;;;;18.50;81.27;96218.28;4975096;28;20254;-70
2021/08/29 09:29:20;;;;;;;6.88;4.50;;;;;;;18.64;84.67;96218.94;4973603;28;20207;-71
2021/08/29 09:31:48;;;;;;;4.22;2.90;;;;;;;18.37;79.58;96213.13;4975980;28;20732;-68
2021/08/29 09:34:19;;;;;;;4.57;3.33;;;;;;;18.63;82.70;96217.31;4975685;28;20206;-67
2021/08/29 09:36:47;;;;;;;4.15;2.65;;;;;;;17.90;79.20;96217.59;4975135;28;20231;-67
2021/08/29 09:39:17;;;;;;;3.17;1.83;;;;;;;17.59;76.35;96223.06;4975416;28;20203;-70
2021/08/29 09:41:44;;;;;;;3.17;2.50;;;;;;;17.79;78.88;96223.66;4975931;28;20254;-70
2021/08/29 09:44:15;;;;;;;4.15;2.72;;;;;;;17.70;78.37;96222.31;4975827;28;20207;-69
2021/08/29 09:46:56;;;;;;;3.55;2.80;;;;;;;17.62;79.65;96222.63;4974365;28;20238;-70
2021/08/29 09:49:24;;;;;;;3.70;2.80;;;;;;;17.70;80.29;96219.66;4974375;28;20214;-70
2021/08/29 09:51:50;;;;;;;3.90;2.80;;;;;;;17.54;79.67;96220.25;4976064;28;20257;-70
2021/08/29 09:54:27;;;;;;;4.13;2.92;;;;;;;17.92;78.19;96212.84;4975181;28;20211;-70
2021/08/29 09:56:54;;;;;;;3.85;3.00;;;;;;;17.80;79.00;96215.44;4974634;28;20227;-70
2021/08/29 09:59:38;;;;;;;4.07;3.25;;;;;;;17.98;78.17;96211.97;4975519;28;20211;-70
2021/08/29 10:02:04;;;;;;;4.55;3.20;;;;;;;18.32;80.06;96212.19;4975311;28;20227;-70
2021/08/29 10:04:31;;;;;;;3.45;2.88;;;;;;;17.86;76.48;96214.56;4975337;28;20207;-70
2021/08/29 10:07:10;;;;;;;4.20;3.35;;;;;;;18.39;79.12;96205.72;4974523;28;20228;-69
2021/08/29 10:09:37;;;;;;;6.30;3.95;;;;;;;18.58;80.94;96203.81;4975087;28;20256;-70
2021/08/29 10:12:04;;;;;;;6.00;4.07;;;;;;;18.49;80.51;96205.19;4975074;28;20218;-70
2021/08/29 10:14:33;;;;;;;4.68;3.30;;;;;;;18.45;76.57;96210.16;4975232;28;20592;-70
2021/08/29 10:16:59;;;;;;;5.82;3.15;;;;;;;18.42;77.57;96207.94;4973846;28;20905;-70
2021/08/29 10:19:28;;;;;;;4.07;3.00;;;;;;;17.98;76.59;96206.63;4975013;28;20207;-70
2021/08/29 10:21:55;;;;;;;3.90;2.85;;;;;;;18.42;77.83;96199.94;4976600;28;20222;-70
2021/08/29 10:24:24;;;;;;;3.00;2.28;;;;;;;17.99;76.46;96202.94;4974382;28;20206;-70
2021/08/29 10:26:54;;;;;;;5.55;3.25;;;;;;;17.68;78.41;96204.91;4970577;28;20362;-70
2021/08/29 10:29:27;;;;;;;2.78;1.95;;;;;;;17.71;78.41;96201.84;4974672;28;20200;-70
2021/08/29 10:32:04;;;;;;;4.90;3.13;;;;;;;17.94;77.93;96200.91;4975888;28;20211;-70
2021/08/29 10:34:32;;;;;;;4.28;3.17;;;;;;;17.86;79.11;96203.09;4974360;28;20219;-69
2021/08/29 10:36:59;;;;;;;3.97;3.00;;;;;;;17.67;79.92;96201.44;4974026;28;20646;-70
2021/08/29 10:39:26;;;;;;;5.47;3.13;;;;;;;17.72;79.22;96201.59;4975340;28;20219;-69
2021/08/29 10:41:54;;;;;;;4.00;2.97;;;;;;;17.69;79.00;96198.56;4974826;28;20265;-71
2021/08/29 10:44:21;;;;;;;5.05;2.95;;;;;;;17.60;78.74;96197.22;4974983;28;20284;-70
2021/08/29 10:46:49;;;;;;;5.80;3.25;;;;;;;17.92;80.86;96192.34;4973347;28;20239;-69
2021/08/29 10:49:18;;;;;;;4.38;2.92;;;;;;;18.31;80.17;96196.41;4975060;28;20209;-69
2021/08/29 10:51:46;;;;;;;6.05;2.30;;;;;;;17.59;77.70;96196.41;4974502;28;20218;-69
2021/08/29 10:54:15;;;;;;;8.40;2.78;;;;;;;17.71;77.74;96189.31;4975098;28;20243;-70
2021/08/29 10:56:42;;;;;;;3.90;2.97;;;;;;;17.54;78.60;96188.28;4973546;28;20231;-70
2021/08/29 10:59:24;;;;;;;4.13;3.10;;;;;;;17.76;77.37;96184.94;4974948;28;20207;-70
2021/08/29 11:01:52;;;;;;;4.30;3.08;;;;;;;17.76;79.85;96186.78;4973692;28;20231;-70
2021/08/29 11:04:46;;;;;;;3.92;2.90;;;;;;;18.05;78.17;96192.19;4974478;28;20310;-70
2021/08/29 11:07:13;;;;;;;5.40;2.75;;;;;;;17.62;78.24;96177.31;4973632;28;20203;-70
2021/08/29 11:09:46;;;;;;;4.10;3.10;;;;;;;17.95;78.70;96188.44;4974386;28;20199;-70
2021/08/29 11:12:32;;;;;;;4.97;3.10;;;;;;;18.24;79.37;96180.50;4973986;28;20206;-70
2021/08/29 11:15:00;;;;;;;5.00;3.30;;;;;;;18.21;82.36;96180.91;4974531;28;20203;-70
2021/08/29 11:17:28;;;;;;;3.75;2.90;;;;;;;18.30;81.14;96181.44;4973326;28;20432;-70
2021/08/29 11:20:11;;;;;;;6.32;3.20;;;;;;;18.15;78.18;96183.66;4974299;28;20707;-70
2021/08/29 11:22:39;;;;;;;4.72;3.40;;;;;;;18.29;77.55;96187.81;4974026;28;20238;-70